Aphrodite — WDI9057 — position and weather

sailwx.info

Track history (hours):
 
Tides and Currents Weather Stations Pressure Air Temp Water Temp Dewpoint Dewpoint Depression Visibility Wind Speed Wind Dir Waves Ship Positions

Aphrodite

Owner: McMunn, Richard W, Mystic, CT. More information available from US FCC via Universal Licensing System and Coast Guard Vessel Documentation Center.

Last reported at 2018-May-08 20:06 UTC. Time now 2018-Jun-19 23:42 UTC.
Position N 14°15' W 060°59'.
Warning: this ship's position is 42 days out of date.

Length 15 m.

Type: Sailing vessel. MMSI: 367744820.

Date/timePositionNaut miles runAvg speedWind from/ knotsBaromVisibWave heightAir tempDewpointWater temp
2018-May-08 20:06N 14°15' W 060°59'1 4.7
2018-May-08 19:56N 14°16' W 060°59'2 5.2
2018-May-08 19:30N 14°18' W 060°59'2 4.7
2018-May-08 19:00N 14°20' W 060°60'2 4.8
2018-May-08 18:30N 14°23' W 060°60'2 4.1
2018-May-08 18:00N 14°25' W 060°60'3 5.6
2018-May-08 17:30N 14°28' W 061°00'1 0.0
2018-May-07 18:56N 14°28' W 061°00'1 2.5
2018-May-07 18:30N 14°27' W 060°60'3 6.2
2018-May-07 17:58N 14°27' W 060°56'3 1.0
2018-May-07 15:14N 14°26' W 060°53'0 0.0
2018-May-07 14:59N 14°26' W 060°53'0 0.0
2018-May-07 14:29N 14°26' W 060°53'0 0.0
2018-May-07 13:59N 14°26' W 060°53'0 0.0
2018-May-07 13:29N 14°26' W 060°53'0 0.0
2018-May-07 12:59N 14°26' W 060°53'0 0.0
2018-May-07 12:29N 14°26' W 060°53'0 0.0
2018-May-07 11:59N 14°26' W 060°53'0 0.0
2018-May-07 11:29N 14°26' W 060°53'0 0.0
2018-May-07 10:59N 14°26' W 060°53'0 0.0
2018-May-07 10:29N 14°26' W 060°53'0 0.0
2018-May-07 09:59N 14°26' W 060°53'0 0.0
2018-May-07 09:29N 14°26' W 060°53'0 0.0
2018-May-07 08:59N 14°26' W 060°53'0 0.0
2018-May-07 08:29N 14°26' W 060°53'0 0.0
2018-May-07 07:59N 14°26' W 060°53'0 0.0
2018-May-07 07:29N 14°26' W 060°53'0 0.0
2018-May-07 06:59N 14°26' W 060°53'0 0.0
2018-May-07 06:29N 14°26' W 060°53'0 0.0
2018-May-07 05:26N 14°26' W 060°53'0 0.0
2018-May-07 04:59N 14°26' W 060°53'0 0.0
2018-May-07 04:29N 14°26' W 060°53'0 0.0
2018-May-07 03:59N 14°26' W 060°53'0 0.0
2018-May-07 03:29N 14°26' W 060°53'0 0.0
2018-May-07 02:59N 14°26' W 060°53'0 0.0
2018-May-07 02:29N 14°26' W 060°53'0 0.0
2018-May-07 01:59N 14°26' W 060°53'0 0.0
2018-May-07 01:29N 14°26' W 060°53'0 0.0
2018-May-06 19:38N 14°26' W 060°53'0 0.0
2018-May-06 18:14N 14°26' W 060°53'0 0.0
2018-May-06 17:08N 14°26' W 060°53'0 0.0
2018-May-06 15:26N 14°26' W 060°53'0 0.0
2018-May-06 11:17N 14°26' W 060°53'0 0.0
2018-May-06 10:56N 14°26' W 060°53'0 0.0
2018-May-06 08:44N 14°26' W 060°53'0 0.0
2018-May-06 08:26N 14°26' W 060°53'0 0.0
2018-May-06 07:56N 14°26' W 060°53'0 0.0
2018-May-06 07:29N 14°26' W 060°53'0 0.0
2018-May-06 06:59N 14°26' W 060°53'0 0.0
2018-May-06 06:29N 14°26' W 060°53'0 0.0
2018-May-06 05:59N 14°26' W 060°53'0 0.0
2018-May-06 05:29N 14°26' W 060°53'0 0.0
2018-May-06 04:59N 14°26' W 060°53'0 0.0
2018-May-06 04:29N 14°26' W 060°53'0 0.0
2018-May-06 03:59N 14°26' W 060°53'0 0.0
2018-May-06 03:29N 14°26' W 060°53'0 0.0
2018-May-06 02:59N 14°26' W 060°53'0 0.0
2018-May-06 02:29N 14°26' W 060°53'0 0.0
2018-May-06 01:59N 14°26' W 060°53'0 0.0
2018-May-06 01:29N 14°26' W 060°53'0 0.0
2018-May-06 00:59N 14°26' W 060°53'0 0.0
2018-May-06 00:29N 14°26' W 060°53'0 0.0
2018-May-05 23:59N 14°26' W 060°53'0 0.0
2018-May-05 23:29N 14°26' W 060°53'0 0.0
2018-May-05 22:59N 14°26' W 060°53'0 0.0
2018-May-05 22:29N 14°26' W 060°53'0 0.0
2018-May-05 21:59N 14°26' W 060°53'0 0.0
2018-May-05 21:29N 14°26' W 060°53'0 0.0
2018-May-05 20:59N 14°26' W 060°53'0 0.0
2018-May-05 20:29N 14°26' W 060°53'0 0.0
2018-May-05 19:59N 14°26' W 060°53'0 0.0
2018-May-05 19:29N 14°26' W 060°53'0 0.0
2018-May-05 18:59N 14°26' W 060°53'0 0.0
2018-May-05 18:29N 14°26' W 060°53'0 0.0
2018-May-05 17:59N 14°26' W 060°53'0 0.0
2018-May-05 17:29N 14°26' W 060°53'0 0.0
2018-May-05 16:59N 14°26' W 060°53'0 0.0
2018-May-05 16:26N 14°26' W 060°53'0 0.0
2018-May-05 15:59N 14°26' W 060°53'0 0.0
2018-May-05 15:29N 14°26' W 060°53'0 0.0
2018-May-05 14:59N 14°26' W 060°53'0 0.0
2018-May-05 14:29N 14°26' W 060°53'0 0.0
2018-May-05 13:59N 14°26' W 060°53'0 0.0
2018-May-05 13:29N 14°26' W 060°53'0 0.0
2018-May-05 12:59N 14°26' W 060°53'0 0.0
2018-May-05 12:29N 14°26' W 060°53'0 0.0
2018-May-05 11:59N 14°26' W 060°53'0 0.0
2018-May-05 11:29N 14°26' W 060°53'0 0.0
2018-May-05 10:59N 14°26' W 060°53'0 0.0
2018-May-05 10:29N 14°26' W 060°53'0 0.0
2018-May-05 09:59N 14°26' W 060°53'0 0.0
2018-May-05 09:29N 14°26' W 060°53'0 0.0
2018-May-05 08:59N 14°26' W 060°53'0 0.0
2018-May-05 08:29N 14°26' W 060°53'0 0.0
2018-May-05 07:59N 14°26' W 060°53'0 0.0
2018-May-05 07:29N 14°26' W 060°53'0 0.0
2018-May-05 06:59N 14°26' W 060°53'0 0.0
2018-May-05 06:29N 14°26' W 060°53'0 0.0
2018-May-05 05:59N 14°26' W 060°53'0 0.0
2018-May-05 05:29N 14°26' W 060°53'0 0.0
2018-May-05 04:59N 14°26' W 060°53'0 0.0
2018-May-05 04:29N 14°26' W 060°53'0 0.0
2018-May-05 03:59N 14°26' W 060°53'0 0.0
2018-May-05 03:29N 14°26' W 060°53'0 0.0
2018-May-05 02:59N 14°26' W 060°53'0 0.0
2018-May-05 02:29N 14°26' W 060°53'0 0.0
2018-May-05 01:59N 14°26' W 060°53'0 0.0
2018-May-05 01:29N 14°26' W 060°53'0 0.0
2018-May-05 00:59N 14°26' W 060°53'0 0.0
2018-May-05 00:29N 14°26' W 060°53'0 0.0
2018-May-04 23:59N 14°26' W 060°53'0 0.0
2018-May-04 23:26N 14°26' W 060°53'0 0.0
2018-May-04 22:59N 14°26' W 060°53'0 0.0
2018-May-04 22:29N 14°26' W 060°53'0 0.0
2018-May-04 21:59N 14°26' W 060°53'0 0.0
2018-May-04 21:29N 14°26' W 060°53'0 0.0
2018-May-04 20:59N 14°26' W 060°53'0 0.0
2018-May-04 20:29N 14°26' W 060°53'0 0.0
2018-May-04 19:59N 14°26' W 060°53'0 0.0
2018-May-04 19:26N 14°26' W 060°53'0 0.0
2018-May-04 18:59N 14°26' W 060°53'0 0.0
2018-May-04 18:29N 14°26' W 060°53'0 0.0
2018-May-04 17:59N 14°26' W 060°53'0 0.0
2018-May-04 17:29N 14°26' W 060°53'0 0.0
2018-May-04 16:59N 14°26' W 060°53'0 0.0
2018-May-04 16:29N 14°26' W 060°53'0 0.0
2018-May-04 15:59N 14°26' W 060°53'0 0.0
2018-May-04 15:29N 14°26' W 060°53'0 0.0
2018-May-04 14:59N 14°26' W 060°53'0 0.0
2018-May-04 14:29N 14°26' W 060°53'0 0.0
2018-May-04 13:59N 14°26' W 060°53'0 0.0
2018-May-04 13:29N 14°26' W 060°53'0 0.0
2018-May-04 12:59N 14°26' W 060°53'0 0.0
2018-May-04 12:29N 14°26' W 060°53'0 0.0
2018-May-04 11:59N 14°26' W 060°53'0 0.0
2018-May-04 11:29N 14°26' W 060°53'0 0.0
2018-May-04 10:59N 14°26' W 060°53'0 0.0
2018-May-04 10:29N 14°26' W 060°53'0 0.0
2018-May-04 09:59N 14°26' W 060°53'0 0.0
2018-May-04 09:29N 14°26' W 060°53'0 0.0
2018-May-04 08:59N 14°26' W 060°53'0 0.0
2018-May-04 08:29N 14°26' W 060°53'0 0.0
2018-May-04 07:59N 14°26' W 060°53'0 0.0
2018-May-04 07:29N 14°26' W 060°53'0 0.0
2018-May-04 06:59N 14°26' W 060°53'0 0.0
2018-May-04 06:29N 14°26' W 060°53'0 0.0
2018-May-04 05:26N 14°26' W 060°53'0 0.0
2018-May-04 04:59N 14°26' W 060°53'0 0.0
2018-May-04 04:29N 14°26' W 060°53'0 0.0
2018-May-04 03:59N 14°26' W 060°53'0 0.0
2018-May-04 03:29N 14°26' W 060°53'0 0.0
2018-May-04 02:59N 14°26' W 060°53'0 0.0
2018-May-04 02:29N 14°26' W 060°53'0 0.0
2018-May-04 01:59N 14°26' W 060°53'0 0.0
2018-May-04 01:29N 14°26' W 060°53'0 0.0
2018-May-04 00:59N 14°26' W 060°53'0 0.0
2018-May-04 00:29N 14°26' W 060°53'0 0.0
2018-May-03 23:59N 14°26' W 060°53'0 0.0
2018-May-03 23:26N 14°26' W 060°53'  
Track history (hours):
 
Tides and Currents Weather Stations Pressure Air Temp Water Temp Dewpoint Dewpoint Depression Visibility Wind Speed Wind Dir Waves Ship Positions

Aphrodite

Owner: McMunn, Richard W, Mystic, CT. More information available from US FCC via Universal Licensing System and Coast Guard Vessel Documentation Center.

Last reported at 2018-May-08 20:06 UTC. Time now 2018-Jun-19 23:42 UTC.
Position N 14°15' W 060°59'.
Warning: this ship's position is 42 days out of date.

Length 15 m.

Type: Sailing vessel. MMSI: 367744820.

Date/timePositionNaut miles runAvg speedWind from/ knotsBaromVisibWave heightAir tempDewpointWater temp
2018-May-08 20:06N 14°15' W 060°59'1 4.7
2018-May-08 19:56N 14°16' W 060°59'2 5.2
2018-May-08 19:30N 14°18' W 060°59'2 4.7
2018-May-08 19:00N 14°20' W 060°60'2 4.8
2018-May-08 18:30N 14°23' W 060°60'2 4.1
2018-May-08 18:00N 14°25' W 060°60'3 5.6
2018-May-08 17:30N 14°28' W 061°00'1 0.0
2018-May-07 18:56N 14°28' W 061°00'1 2.5
2018-May-07 18:30N 14°27' W 060°60'3 6.2
2018-May-07 17:58N 14°27' W 060°56'3 1.0
2018-May-07 15:14N 14°26' W 060°53'0 0.0
2018-May-07 14:59N 14°26' W 060°53'0 0.0
2018-May-07 14:29N 14°26' W 060°53'0 0.0
2018-May-07 13:59N 14°26' W 060°53'0 0.0
2018-May-07 13:29N 14°26' W 060°53'0 0.0
2018-May-07 12:59N 14°26' W 060°53'0 0.0
2018-May-07 12:29N 14°26' W 060°53'0 0.0
2018-May-07 11:59N 14°26' W 060°53'0 0.0
2018-May-07 11:29N 14°26' W 060°53'0 0.0
2018-May-07 10:59N 14°26' W 060°53'0 0.0
2018-May-07 10:29N 14°26' W 060°53'0 0.0
2018-May-07 09:59N 14°26' W 060°53'0 0.0
2018-May-07 09:29N 14°26' W 060°53'0 0.0
2018-May-07 08:59N 14°26' W 060°53'0 0.0
2018-May-07 08:29N 14°26' W 060°53'0 0.0
2018-May-07 07:59N 14°26' W 060°53'0 0.0
2018-May-07 07:29N 14°26' W 060°53'0 0.0
2018-May-07 06:59N 14°26' W 060°53'0 0.0
2018-May-07 06:29N 14°26' W 060°53'0 0.0
2018-May-07 05:26N 14°26' W 060°53'0 0.0
2018-May-07 04:59N 14°26' W 060°53'0 0.0
2018-May-07 04:29N 14°26' W 060°53'0 0.0
2018-May-07 03:59N 14°26' W 060°53'0 0.0
2018-May-07 03:29N 14°26' W 060°53'0 0.0
2018-May-07 02:59N 14°26' W 060°53'0 0.0
2018-May-07 02:29N 14°26' W 060°53'0 0.0
2018-May-07 01:59N 14°26' W 060°53'0 0.0
2018-May-07 01:29N 14°26' W 060°53'0 0.0
2018-May-06 19:38N 14°26' W 060°53'0 0.0
2018-May-06 18:14N 14°26' W 060°53'0 0.0
2018-May-06 17:08N 14°26' W 060°53'0 0.0
2018-May-06 15:26N 14°26' W 060°53'0 0.0
2018-May-06 11:17N 14°26' W 060°53'0 0.0
2018-May-06 10:56N 14°26' W 060°53'0 0.0
2018-May-06 08:44N 14°26' W 060°53'0 0.0
2018-May-06 08:26N 14°26' W 060°53'0 0.0
2018-May-06 07:56N 14°26' W 060°53'0 0.0
2018-May-06 07:29N 14°26' W 060°53'0 0.0
2018-May-06 06:59N 14°26' W 060°53'0 0.0
2018-May-06 06:29N 14°26' W 060°53'0 0.0
2018-May-06 05:59N 14°26' W 060°53'0 0.0
2018-May-06 05:29N 14°26' W 060°53'0 0.0
2018-May-06 04:59N 14°26' W 060°53'0 0.0
2018-May-06 04:29N 14°26' W 060°53'0 0.0
2018-May-06 03:59N 14°26' W 060°53'0 0.0
2018-May-06 03:29N 14°26' W 060°53'0 0.0
2018-May-06 02:59N 14°26' W 060°53'0 0.0
2018-May-06 02:29N 14°26' W 060°53'0 0.0
2018-May-06 01:59N 14°26' W 060°53'0 0.0
2018-May-06 01:29N 14°26' W 060°53'0 0.0
2018-May-06 00:59N 14°26' W 060°53'0 0.0
2018-May-06 00:29N 14°26' W 060°53'0 0.0
2018-May-05 23:59N 14°26' W 060°53'0 0.0
2018-May-05 23:29N 14°26' W 060°53'0 0.0
2018-May-05 22:59N 14°26' W 060°53'0 0.0
2018-May-05 22:29N 14°26' W 060°53'0 0.0
2018-May-05 21:59N 14°26' W 060°53'0 0.0
2018-May-05 21:29N 14°26' W 060°53'0 0.0
2018-May-05 20:59N 14°26' W 060°53'0 0.0
2018-May-05 20:29N 14°26' W 060°53'0 0.0
2018-May-05 19:59N 14°26' W 060°53'0 0.0
2018-May-05 19:29N 14°26' W 060°53'0 0.0
2018-May-05 18:59N 14°26' W 060°53'0 0.0
2018-May-05 18:29N 14°26' W 060°53'0 0.0
2018-May-05 17:59N 14°26' W 060°53'0 0.0
2018-May-05 17:29N 14°26' W 060°53'0 0.0
2018-May-05 16:59N 14°26' W 060°53'0 0.0
2018-May-05 16:26N 14°26' W 060°53'0 0.0
2018-May-05 15:59N 14°26' W 060°53'0 0.0
2018-May-05 15:29N 14°26' W 060°53'0 0.0
2018-May-05 14:59N 14°26' W 060°53'0 0.0
2018-May-05 14:29N 14°26' W 060°53'0 0.0
2018-May-05 13:59N 14°26' W 060°53'0 0.0
2018-May-05 13:29N 14°26' W 060°53'0 0.0
2018-May-05 12:59N 14°26' W 060°53'0 0.0
2018-May-05 12:29N 14°26' W 060°53'0 0.0
2018-May-05 11:59N 14°26' W 060°53'0 0.0
2018-May-05 11:29N 14°26' W 060°53'0 0.0
2018-May-05 10:59N 14°26' W 060°53'0 0.0
2018-May-05 10:29N 14°26' W 060°53'0 0.0
2018-May-05 09:59N 14°26' W 060°53'0 0.0
2018-May-05 09:29N 14°26' W 060°53'0 0.0
2018-May-05 08:59N 14°26' W 060°53'0 0.0
2018-May-05 08:29N 14°26' W 060°53'0 0.0
2018-May-05 07:59N 14°26' W 060°53'0 0.0
2018-May-05 07:29N 14°26' W 060°53'0 0.0
2018-May-05 06:59N 14°26' W 060°53'0 0.0
2018-May-05 06:29N 14°26' W 060°53'0 0.0
2018-May-05 05:59N 14°26' W 060°53'0 0.0
2018-May-05 05:29N 14°26' W 060°53'0 0.0
2018-May-05 04:59N 14°26' W 060°53'0 0.0
2018-May-05 04:29N 14°26' W 060°53'0 0.0
2018-May-05 03:59N 14°26' W 060°53'0 0.0
2018-May-05 03:29N 14°26' W 060°53'0 0.0
2018-May-05 02:59N 14°26' W 060°53'0 0.0
2018-May-05 02:29N 14°26' W 060°53'0 0.0
2018-May-05 01:59N 14°26' W 060°53'0 0.0
2018-May-05 01:29N 14°26' W 060°53'0 0.0
2018-May-05 00:59N 14°26' W 060°53'0 0.0
2018-May-05 00:29N 14°26' W 060°53'0 0.0
2018-May-04 23:59N 14°26' W 060°53'0 0.0
2018-May-04 23:26N 14°26' W 060°53'0 0.0
2018-May-04 22:59N 14°26' W 060°53'0 0.0
2018-May-04 22:29N 14°26' W 060°53'0 0.0
2018-May-04 21:59N 14°26' W 060°53'0 0.0
2018-May-04 21:29N 14°26' W 060°53'0 0.0
2018-May-04 20:59N 14°26' W 060°53'0 0.0
2018-May-04 20:29N 14°26' W 060°53'0 0.0
2018-May-04 19:59N 14°26' W 060°53'0 0.0
2018-May-04 19:26N 14°26' W 060°53'0 0.0
2018-May-04 18:59N 14°26' W 060°53'0 0.0
2018-May-04 18:29N 14°26' W 060°53'0 0.0
2018-May-04 17:59N 14°26' W 060°53'0 0.0
2018-May-04 17:29N 14°26' W 060°53'0 0.0
2018-May-04 16:59N 14°26' W 060°53'0 0.0
2018-May-04 16:29N 14°26' W 060°53'0 0.0
2018-May-04 15:59N 14°26' W 060°53'0 0.0
2018-May-04 15:29N 14°26' W 060°53'0 0.0
2018-May-04 14:59N 14°26' W 060°53'0 0.0
2018-May-04 14:29N 14°26' W 060°53'0 0.0
2018-May-04 13:59N 14°26' W 060°53'0 0.0
2018-May-04 13:29N 14°26' W 060°53'0 0.0
2018-May-04 12:59N 14°26' W 060°53'0 0.0
2018-May-04 12:29N 14°26' W 060°53'0 0.0
2018-May-04 11:59N 14°26' W 060°53'0 0.0
2018-May-04 11:29N 14°26' W 060°53'0 0.0
2018-May-04 10:59N 14°26' W 060°53'0 0.0
2018-May-04 10:29N 14°26' W 060°53'0 0.0
2018-May-04 09:59N 14°26' W 060°53'0 0.0
2018-May-04 09:29N 14°26' W 060°53'0 0.0
2018-May-04 08:59N 14°26' W 060°53'0 0.0
2018-May-04 08:29N 14°26' W 060°53'0 0.0
2018-May-04 07:59N 14°26' W 060°53'0 0.0
2018-May-04 07:29N 14°26' W 060°53'0 0.0
2018-May-04 06:59N 14°26' W 060°53'0 0.0
2018-May-04 06:29N 14°26' W 060°53'0 0.0
2018-May-04 05:26N 14°26' W 060°53'0 0.0
2018-May-04 04:59N 14°26' W 060°53'0 0.0
2018-May-04 04:29N 14°26' W 060°53'0 0.0
2018-May-04 03:59N 14°26' W 060°53'0 0.0
2018-May-04 03:29N 14°26' W 060°53'0 0.0
2018-May-04 02:59N 14°26' W 060°53'0 0.0
2018-May-04 02:29N 14°26' W 060°53'0 0.0
2018-May-04 01:59N 14°26' W 060°53'0 0.0
2018-May-04 01:29N 14°26' W 060°53'0 0.0
2018-May-04 00:59N 14°26' W 060°53'0 0.0
2018-May-04 00:29N 14°26' W 060°53'0 0.0
2018-May-03 23:59N 14°26' W 060°53'0 0.0
2018-May-03 23:26N 14°26' W 060°53'  

Dump ship's entire track history